Time;durP1;ratioP1;P1;durP2;ratioP2;P2;SDS_P1;SDS_P2;PMS_P1;PMS_P2;Temp;Humidity;BMP_temperature;BMP_pressure;BME280_temperature;BME280_humidity;BME280_pressure;Samples;Min_cycle;Max_cycle;Signal;HPM_P1;HPM_P2
2021/04/18 00:01:47;;;;;;;12.70;10.27;;;;;;;;;;5134228;27;20339;-60
2021/04/18 00:04:13;;;;;;;11.23;8.23;;;;;;;;;;5134730;27;20222;-60
2021/04/18 00:06:38;;;;;;;8.37;7.17;;;;;;;;;;5134671;27;20236;-60
2021/04/18 00:09:08;;;;;;;8.50;7.70;;;;;;;;;;5134269;27;20219;-60
2021/04/18 00:11:33;;;;;;;12.37;8.20;;;;;;;;;;5134705;27;20359;-60
2021/04/18 00:13:59;;;;;;;15.27;8.20;;;;;;;;;;5134224;27;20456;-60
2021/04/18 00:16:24;;;;;;;14.60;7.27;;;;;;;;;;5134600;27;20200;-60
2021/04/18 00:18:49;;;;;;;9.00;8.03;;;;;;;;;;5134132;27;20607;-60
2021/04/18 00:21:14;;;;;;;9.27;8.27;;;;;;;;;;5134833;27;20272;-60
2021/04/18 00:23:40;;;;;;;9.97;8.07;;;;;;;;;;5134778;27;20217;-60
2021/04/18 00:26:05;;;;;;;8.90;8.00;;;;;;;;;;5134140;27;20222;-59
2021/04/18 00:28:30;;;;;;;9.30;8.37;;;;;;;;;;5134795;27;20223;-60
2021/04/18 00:30:56;;;;;;;8.77;7.70;;;;;;;;;;5134340;27;20225;-59
2021/04/18 00:33:22;;;;;;;9.90;7.60;;;;;;;;;;5134682;27;20639;-60
2021/04/18 00:35:47;;;;;;;13.20;9.27;;;;;;;;;;5134137;27;20456;-60
2021/04/18 00:38:12;;;;;;;9.33;7.87;;;;;;;;;;5133397;28;20214;-60
2021/04/18 00:40:38;;;;;;;8.00;6.87;;;;;;;;;;5134648;27;20315;-60
2021/04/18 00:43:04;;;;;;;14.83;9.07;;;;;;;;;;5133887;27;20226;-59
2021/04/18 00:45:30;;;;;;;10.53;8.50;;;;;;;;;;5133520;28;20614;-60
2021/04/18 00:47:55;;;;;;;11.87;8.07;;;;;;;;;;5132803;27;20579;-59
2021/04/18 00:50:25;;;;;;;14.93;9.63;;;;;;;;;;5135485;27;20214;-60
2021/04/18 00:52:51;;;;;;;8.57;7.30;;;;;;;;;;5136879;27;20242;-60
2021/04/18 00:55:18;;;;;;;11.17;8.73;;;;;;;;;;5138309;27;20455;-60
2021/04/18 00:57:43;;;;;;;10.33;8.33;;;;;;;;;;5138211;27;20446;-60
2021/04/18 01:00:09;;;;;;;9.53;7.70;;;;;;;;;;5136273;27;21436;-62
2021/04/18 01:02:35;;;;;;;10.57;8.67;;;;;;;;;;5138303;27;20301;-59
2021/04/18 01:05:00;;;;;;;9.90;8.47;;;;;;;;;;5137436;27;20878;-60
2021/04/18 01:07:26;;;;;;;12.13;8.33;;;;;;;;;;5137848;27;20555;-59
2021/04/18 01:09:53;;;;;;;10.03;8.73;;;;;;;;;;5137599;27;20218;-60
2021/04/18 01:12:18;;;;;;;11.37;8.43;;;;;;;;;;5136895;27;20588;-60
2021/04/18 01:14:43;;;;;;;10.97;8.67;;;;;;;;;;5136829;27;20959;-60
2021/04/18 01:17:08;;;;;;;11.87;8.83;;;;;;;;;;5137181;27;20224;-60
2021/04/18 01:19:34;;;;;;;9.47;8.20;;;;;;;;;;5137735;27;20243;-59
2021/04/18 01:21:59;;;;;;;11.03;7.80;;;;;;;;;;5137339;27;20219;-60
2021/04/18 01:24:25;;;;;;;8.90;8.00;;;;;;;;;;5137663;27;20225;-60
2021/04/18 01:26:51;;;;;;;12.13;8.17;;;;;;;;;;5137427;27;20297;-61
2021/04/18 01:29:16;;;;;;;12.00;9.07;;;;;;;;;;5137628;27;20741;-60
2021/04/18 01:31:42;;;;;;;14.17;8.23;;;;;;;;;;5137659;27;20222;-60
2021/04/18 01:34:11;;;;;;;11.90;8.63;;;;;;;;;;5136801;27;20541;-61
2021/04/18 01:36:37;;;;;;;9.50;8.50;;;;;;;;;;5137496;27;20214;-61
2021/04/18 01:39:02;;;;;;;10.37;7.70;;;;;;;;;;5135862;27;20841;-60
2021/04/18 01:41:28;;;;;;;11.40;7.90;;;;;;;;;;5137267;27;20625;-61
2021/04/18 01:43:53;;;;;;;14.73;9.43;;;;;;;;;;5135780;27;20778;-59
2021/04/18 01:46:18;;;;;;;10.03;8.00;;;;;;;;;;5137130;27;20617;-59
2021/04/18 01:48:44;;;;;;;11.00;8.10;;;;;;;;;;5137085;27;20214;-60
2021/04/18 01:51:10;;;;;;;12.80;9.10;;;;;;;;;;5136935;27;20286;-60
2021/04/18 01:53:35;;;;;;;10.50;7.73;;;;;;;;;;5136273;27;20225;-61
2021/04/18 01:56:01;;;;;;;13.70;8.50;;;;;;;;;;5136541;27;20548;-60
2021/04/18 01:58:26;;;;;;;12.23;9.80;;;;;;;;;;5136866;27;20340;-60
2021/04/18 02:00:52;;;;;;;11.73;9.37;;;;;;;;;;5136236;27;20218;-60
2021/04/18 02:03:17;;;;;;;10.77;8.43;;;;;;;;;;5136565;27;20313;-59
2021/04/18 02:05:42;;;;;;;11.10;9.67;;;;;;;;;;5136878;27;20248;-61
2021/04/18 02:08:07;;;;;;;11.80;10.53;;;;;;;;;;5136263;27;20223;-60
2021/04/18 02:10:33;;;;;;;11.53;10.37;;;;;;;;;;5137079;27;20237;-61
2021/04/18 02:12:58;;;;;;;11.00;9.90;;;;;;;;;;5136305;27;20252;-60
2021/04/18 02:15:23;;;;;;;15.10;10.00;;;;;;;;;;5137161;27;20670;-60
2021/04/18 02:17:49;;;;;;;12.70;9.80;;;;;;;;;;5136027;27;20225;-60
2021/04/18 02:20:16;;;;;;;13.27;11.33;;;;;;;;;;5136604;27;20232;-59
2021/04/18 02:22:43;;;;;;;14.73;11.60;;;;;;;;;;5135492;27;20338;-60
2021/04/18 02:25:09;;;;;;;17.80;11.70;;;;;;;;;;5135995;27;21007;-61
2021/04/18 02:27:34;;;;;;;12.97;10.00;;;;;;;;;;5136572;27;20521;-59
2021/04/18 02:29:59;;;;;;;16.50;9.97;;;;;;;;;;5135984;27;20935;-58
2021/04/18 02:32:25;;;;;;;14.27;11.07;;;;;;;;;;5136631;27;20722;-60
2021/04/18 02:34:50;;;;;;;14.20;12.80;;;;;;;;;;5135994;27;20215;-59
2021/04/18 02:37:16;;;;;;;12.30;11.10;;;;;;;;;;5136136;27;20220;-60
2021/04/18 02:39:42;;;;;;;15.13;11.83;;;;;;;;;;5136205;27;20213;-59
2021/04/18 02:42:07;;;;;;;16.17;13.23;;;;;;;;;;5134829;27;20221;-59
2021/04/18 02:44:33;;;;;;;14.90;12.40;;;;;;;;;;5136013;27;20769;-60
2021/04/18 02:46:59;;;;;;;18.37;13.00;;;;;;;;;;5135750;27;20218;-60
2021/04/18 02:49:24;;;;;;;16.23;13.73;;;;;;;;;;5135983;27;20240;-59
2021/04/18 02:51:49;;;;;;;16.40;13.50;;;;;;;;;;5136094;27;20214;-60
2021/04/18 02:54:15;;;;;;;16.60;12.60;;;;;;;;;;5135522;27;20210;-59
2021/04/18 02:56:40;;;;;;;18.13;14.77;;;;;;;;;;5135845;27;20300;-60
2021/04/18 02:59:05;;;;;;;15.20;13.43;;;;;;;;;;5135529;27;20612;-60
2021/04/18 03:01:30;;;;;;;16.50;13.80;;;;;;;;;;5135858;27;20221;-59
2021/04/18 03:03:56;;;;;;;21.47;16.53;;;;;;;;;;5135234;27;20239;-60
2021/04/18 03:06:21;;;;;;;18.17;15.50;;;;;;;;;;5135359;27;20221;-60
2021/04/18 03:08:46;;;;;;;22.60;15.87;;;;;;;;;;5135891;27;20647;-60
2021/04/18 03:11:12;;;;;;;20.37;16.00;;;;;;;;;;5135106;27;20665;-60
2021/04/18 03:13:38;;;;;;;20.23;16.40;;;;;;;;;;5134467;27;20307;-60
2021/04/18 03:16:03;;;;;;;21.77;16.27;;;;;;;;;;5135186;27;20223;-60
2021/04/18 03:18:28;;;;;;;20.20;16.83;;;;;;;;;;5135253;27;20230;-59
2021/04/18 03:20:54;;;;;;;20.63;16.30;;;;;;;;;;5135158;27;20214;-60
2021/04/18 03:23:19;;;;;;;24.60;16.90;;;;;;;;;;5126674;27;20210;-60
2021/04/18 03:25:44;;;;;;;25.37;18.50;;;;;;;;;;5135345;27;20218;-60
2021/04/18 03:28:10;;;;;;;28.20;19.70;;;;;;;;;;5134890;27;20214;-59
2021/04/18 03:30:36;;;;;;;25.37;19.73;;;;;;;;;;5135295;27;20649;-59
2021/04/18 03:33:02;;;;;;;21.83;18.47;;;;;;;;;;5134881;27;20302;-59
2021/04/18 03:35:27;;;;;;;25.93;18.53;;;;;;;;;;5135303;27;20579;-59
2021/04/18 03:37:52;;;;;;;23.17;17.97;;;;;;;;;;5135112;27;20238;-60
2021/04/18 03:40:18;;;;;;;24.97;19.43;;;;;;;;;;5134699;27;20218;-60
2021/04/18 03:42:43;;;;;;;25.60;19.17;;;;;;;;;;5134999;27;20220;-60
2021/04/18 03:45:09;;;;;;;26.13;20.03;;;;;;;;;;5134828;27;20332;-60
2021/04/18 03:47:34;;;;;;;23.73;20.40;;;;;;;;;;5134955;27;20217;-60
2021/04/18 03:50:00;;;;;;;26.80;20.20;;;;;;;;;;5134667;27;20785;-60
2021/04/18 03:52:25;;;;;;;26.93;19.80;;;;;;;;;;5134954;27;20213;-60
2021/04/18 03:54:50;;;;;;;24.97;20.20;;;;;;;;;;5135010;27;20225;-60
2021/04/18 03:57:16;;;;;;;24.43;21.20;;;;;;;;;;5134432;27;20701;-59
2021/04/18 03:59:41;;;;;;;30.93;22.20;;;;;;;;;;5134964;27;20225;-59
2021/04/18 04:02:06;;;;;;;29.10;21.23;;;;;;;;;;5134617;27;20297;-59
2021/04/18 04:04:32;;;;;;;27.00;21.40;;;;;;;;;;5134828;27;20562;-60
2021/04/18 04:06:57;;;;;;;30.97;21.87;;;;;;;;;;5134346;27;20301;-60
2021/04/18 04:09:22;;;;;;;26.73;20.70;;;;;;;;;;5134707;27;20224;-60
2021/04/18 04:11:48;;;;;;;28.30;21.20;;;;;;;;;;5135070;27;20216;-60
2021/04/18 04:14:13;;;;;;;30.83;21.97;;;;;;;;;;5134283;27;20715;-60
2021/04/18 04:16:38;;;;;;;27.33;23.50;;;;;;;;;;5134620;27;20233;-60
2021/04/18 04:19:03;;;;;;;28.40;20.97;;;;;;;;;;5134138;27;20247;-60
2021/04/18 04:21:29;;;;;;;24.67;20.63;;;;;;;;;;5134727;27;20300;-60
2021/04/18 04:23:54;;;;;;;27.13;21.13;;;;;;;;;;5134907;27;20304;-60
2021/04/18 04:26:20;;;;;;;26.53;21.33;;;;;;;;;;5137956;27;20713;-60
2021/04/18 04:28:45;;;;;;;24.93;19.70;;;;;;;;;;5138831;27;20218;-60
2021/04/18 04:31:10;;;;;;;24.13;18.27;;;;;;;;;;5138311;27;20218;-60
2021/04/18 04:33:37;;;;;;;29.13;21.73;;;;;;;;;;5138785;27;20299;-60
2021/04/18 04:36:03;;;;;;;27.43;20.40;;;;;;;;;;5138365;27;20273;-60
2021/04/18 04:38:29;;;;;;;25.57;21.07;;;;;;;;;;5138279;27;20458;-60
2021/04/18 04:40:58;;;;;;;25.40;18.50;;;;;;;;;;5138545;27;20487;-60
2021/04/18 04:43:23;;;;;;;27.43;18.43;;;;;;;;;;5138059;27;20463;-59
2021/04/18 04:45:49;;;;;;;27.73;19.90;;;;;;;;;;5138301;27;20521;-59
2021/04/18 04:48:14;;;;;;;28.23;21.90;;;;;;;;;;5137768;27;20225;-60
2021/04/18 04:50:39;;;;;;;29.80;20.97;;;;;;;;;;5138358;27;20570;-59
2021/04/18 04:53:04;;;;;;;29.30;20.50;;;;;;;;;;5137104;27;20232;-60
2021/04/18 04:55:30;;;;;;;28.73;21.43;;;;;;;;;;5138288;27;20241;-59
2021/04/18 04:57:55;;;;;;;28.30;20.97;;;;;;;;;;5138234;27;20255;-59
2021/04/18 05:00:21;;;;;;;24.90;19.87;;;;;;;;;;5138041;27;20225;-60
2021/04/18 05:02:46;;;;;;;27.67;20.87;;;;;;;;;;5138279;27;20223;-60
2021/04/18 05:05:12;;;;;;;23.57;20.50;;;;;;;;;;5137644;27;20233;-59
2021/04/18 05:07:37;;;;;;;27.17;21.07;;;;;;;;;;5137882;27;20246;-59
2021/04/18 05:10:04;;;;;;;28.43;20.80;;;;;;;;;;5137749;27;20234;-58
2021/04/18 05:12:29;;;;;;;32.03;22.40;;;;;;;;;;5137843;27;20303;-59
2021/04/18 05:14:54;;;;;;;29.20;21.70;;;;;;;;;;5138101;27;20524;-59
2021/04/18 05:17:19;;;;;;;32.00;22.10;;;;;;;;;;5137253;27;20258;-59
2021/04/18 05:19:44;;;;;;;28.60;21.03;;;;;;;;;;5137526;27;20300;-59
2021/04/18 05:22:10;;;;;;;28.20;21.70;;;;;;;;;;5137463;27;20245;-59
2021/04/18 05:24:35;;;;;;;25.70;21.43;;;;;;;;;;5137691;27;20248;-60
2021/04/18 05:27:00;;;;;;;28.83;21.20;;;;;;;;;;5137668;27;20244;-60
2021/04/18 05:29:26;;;;;;;31.13;21.33;;;;;;;;;;5137219;27;20221;-59
2021/04/18 05:31:51;;;;;;;30.30;21.80;;;;;;;;;;5137518;27;20624;-60
2021/04/18 05:34:17;;;;;;;31.00;23.43;;;;;;;;;;5137022;27;20257;-59
2021/04/18 05:36:42;;;;;;;29.00;21.73;;;;;;;;;;5136118;27;20586;-59
2021/04/18 05:39:08;;;;;;;27.07;20.07;;;;;;;;;;5136859;27;20710;-59
2021/04/18 05:41:35;;;;;;;31.93;22.50;;;;;;;;;;5137415;27;20236;-59
2021/04/18 05:44:01;;;;;;;32.83;21.50;;;;;;;;;;5137197;27;20453;-59
2021/04/18 05:46:26;;;;;;;31.97;22.00;;;;;;;;;;5136803;27;20459;-59
2021/04/18 05:48:51;;;;;;;32.57;22.90;;;;;;;;;;5137435;27;20289;-59
2021/04/18 05:51:16;;;;;;;32.90;23.83;;;;;;;;;;5136677;27;20313;-59
2021/04/18 05:53:42;;;;;;;32.83;24.37;;;;;;;;;;5137123;27;20601;-60
2021/04/18 05:56:07;;;;;;;35.93;22.90;;;;;;;;;;5136868;27;20271;-59
2021/04/18 05:58:33;;;;;;;36.17;23.13;;;;;;;;;;5136971;27;20547;-59
2021/04/18 06:00:58;;;;;;;37.83;24.80;;;;;;;;;;5135870;27;20216;-59
2021/04/18 06:03:23;;;;;;;29.87;23.50;;;;;;;;;;5135780;27;20431;-60
2021/04/18 06:05:49;;;;;;;36.93;25.20;;;;;;;;;;5137039;27;20751;-60
2021/04/18 06:08:14;;;;;;;31.33;23.43;;;;;;;;;;5136328;27;20225;-59
2021/04/18 06:10:39;;;;;;;35.20;24.40;;;;;;;;;;5136776;27;20360;-60
2021/04/18 06:13:04;;;;;;;34.37;24.10;;;;;;;;;;5136478;27;20559;-59
2021/04/18 06:15:30;;;;;;;32.37;23.50;;;;;;;;;;5136714;27;20225;-59
2021/04/18 06:17:55;;;;;;;33.70;22.83;;;;;;;;;;5136494;27;20225;-60
2021/04/18 06:20:20;;;;;;;34.87;23.40;;;;;;;;;;5136146;27;20324;-59
2021/04/18 06:22:45;;;;;;;37.50;25.70;;;;;;;;;;5136388;27;20225;-59
2021/04/18 06:25:12;;;;;;;34.40;23.60;;;;;;;;;;5136024;27;20398;-59
2021/04/18 06:27:37;;;;;;;33.70;24.37;;;;;;;;;;5136364;27;20225;-59
2021/04/18 06:30:05;;;;;;;35.43;24.40;;;;;;;;;;5136270;27;20460;-59
2021/04/18 06:32:30;;;;;;;35.80;24.10;;;;;;;;;;5127580;27;20759;-60
2021/04/18 06:34:56;;;;;;;32.07;22.90;;;;;;;;;;5136293;27;20468;-59
2021/04/18 06:37:21;;;;;;;30.87;23.73;;;;;;;;;;5135661;27;20654;-60
2021/04/18 06:39:46;;;;;;;31.93;24.90;;;;;;;;;;5136244;27;20225;-60
2021/04/18 06:42:14;;;;;;;34.53;26.27;;;;;;;;;;5135865;27;20221;-60
2021/04/18 06:44:40;;;;;;;31.63;23.90;;;;;;;;;;5135841;27;20229;-60
2021/04/18 06:47:05;;;;;;;33.40;25.30;;;;;;;;;;5135768;27;20527;-60
2021/04/18 06:49:30;;;;;;;31.03;22.73;;;;;;;;;;5135551;27;20517;-60
2021/04/18 06:51:58;;;;;;;30.60;23.13;;;;;;;;;;5136124;27;20575;-60
2021/04/18 06:54:24;;;;;;;32.67;24.43;;;;;;;;;;5124922;27;20292;-60
2021/04/18 06:56:49;;;;;;;31.70;23.07;;;;;;;;;;5115277;27;20432;-60
2021/04/18 06:59:15;;;;;;;28.83;21.97;;;;;;;;;;5114947;27;20214;-60
2021/04/18 07:01:41;;;;;;;38.87;26.00;;;;;;;;;;5115180;28;20221;-60
2021/04/18 07:04:11;;;;;;;29.60;22.57;;;;;;;;;;5115241;28;20219;-60
2021/04/18 07:06:47;;;;;;;32.03;24.57;;;;;;;;;;5114963;28;20295;-60
2021/04/18 07:09:13;;;;;;;34.40;25.17;;;;;;;;;;5114869;28;20866;-59
2021/04/18 07:11:50;;;;;;;32.07;23.30;;;;;;;;;;5115186;28;20485;-59
2021/04/18 07:14:19;;;;;;;30.13;24.30;;;;;;;;;;5114464;28;20471;-60
2021/04/18 07:16:45;;;;;;;30.43;23.53;;;;;;;;;;5114932;28;20828;-60
2021/04/18 07:19:26;;;;;;;32.00;23.10;;;;;;;;;;5114773;28;20499;-60
2021/04/18 07:21:55;;;;;;;27.90;20.80;;;;;;;;;;5114929;28;20413;-63
2021/04/18 07:24:22;;;;;;;28.90;20.60;;;;;;;;;;5114487;28;20422;-60
2021/04/18 07:27:04;;;;;;;28.27;21.10;;;;;;;;;;5096555;28;20426;-59
2021/04/18 07:29:31;;;;;;;24.17;18.43;;;;;;;;;;5113560;28;20463;-60
2021/04/18 07:32:00;;;;;;;23.00;19.93;;;;;;;;;;5114890;28;20452;-60
2021/04/18 07:34:34;;;;;;;23.50;19.07;;;;;;;;;;5114306;28;20468;-60
2021/04/18 07:37:09;;;;;;;27.03;19.37;;;;;;;;;;5114608;28;20483;-59
2021/04/18 07:39:54;;;;;;;22.00;17.10;;;;;;;;;;5114557;28;20740;-60
2021/04/18 07:42:37;;;;;;;24.17;18.73;;;;;;;;;;5114109;28;20436;-60
2021/04/18 07:45:05;;;;;;;22.10;19.03;;;;;;;;;;5114491;28;20986;-60
2021/04/18 07:47:33;;;;;;;20.27;17.83;;;;;;;;;;5114245;28;20415;-59
2021/04/18 07:49:58;;;;;;;22.43;17.83;;;;;;;;;;5114621;28;20437;-59
2021/04/18 07:52:25;;;;;;;22.77;18.43;;;;;;;;;;5113044;28;20516;-60
2021/04/18 07:54:51;;;;;;;24.40;17.67;;;;;;;;;;5113397;28;20210;-60
2021/04/18 07:57:19;;;;;;;20.07;16.97;;;;;;;;;;5113998;27;20458;-60
2021/04/18 07:59:44;;;;;;;23.83;18.03;;;;;;;;;;5113812;28;20759;-60
2021/04/18 08:02:14;;;;;;;20.70;18.30;;;;;;;;;;5114225;28;20466;-60
2021/04/18 08:04:40;;;;;;;23.20;17.90;;;;;;;;;;5112522;28;20242;-59
2021/04/18 08:07:06;;;;;;;22.77;17.23;;;;;;;;;;5113049;28;20443;-60
2021/04/18 08:09:31;;;;;;;20.90;17.97;;;;;;;;;;5095936;28;20973;-59
2021/04/18 08:12:05;;;;;;;22.93;17.10;;;;;;;;;;5114545;28;20300;-60
2021/04/18 08:14:31;;;;;;;23.47;16.47;;;;;;;;;;5113985;28;20571;-60
2021/04/18 08:17:07;;;;;;;19.43;16.30;;;;;;;;;;5114045;28;20458;-60
2021/04/18 08:19:33;;;;;;;19.20;17.03;;;;;;;;;;5113600;28;20435;-60
2021/04/18 08:21:58;;;;;;;17.20;15.20;;;;;;;;;;5114185;28;20492;-59
2021/04/18 08:24:23;;;;;;;17.53;14.37;;;;;;;;;;5113912;28;20215;-60
2021/04/18 08:27:00;;;;;;;15.70;13.67;;;;;;;;;;5114122;28;20228;-59
2021/04/18 08:29:26;;;;;;;18.40;14.87;;;;;;;;;;5113660;28;20208;-60
2021/04/18 08:32:02;;;;;;;17.07;14.53;;;;;;;;;;5114201;28;20763;-60
2021/04/18 08:34:31;;;;;;;15.80;12.80;;;;;;;;;;5113724;28;20221;-59
2021/04/18 08:36:58;;;;;;;15.63;13.93;;;;;;;;;;5113866;28;20962;-60
2021/04/18 08:39:24;;;;;;;15.27;13.53;;;;;;;;;;5113643;28;20490;-60
2021/04/18 08:41:52;;;;;;;15.87;13.60;;;;;;;;;;5114094;28;20432;-59
2021/04/18 08:44:26;;;;;;;16.40;12.73;;;;;;;;;;5113458;28;20449;-60
2021/04/18 08:46:55;;;;;;;12.53;11.27;;;;;;;;;;5113827;28;20432;-60
2021/04/18 08:49:43;;;;;;;12.07;10.47;;;;;;;;;;5113558;28;20779;-59
2021/04/18 08:52:12;;;;;;;12.90;11.60;;;;;;;;;;5114220;28;20454;-60
2021/04/18 08:54:42;;;;;;;12.27;10.70;;;;;;;;;;5113601;28;20419;-60
2021/04/18 08:57:10;;;;;;;15.70;13.33;;;;;;;;;;5113788;28;20446;-60
2021/04/18 08:59:38;;;;;;;15.03;13.43;;;;;;;;;;5113555;28;20518;-61
2021/04/18 09:02:05;;;;;;;15.57;12.87;;;;;;;;;;5114165;28;20490;-59
2021/04/18 09:04:33;;;;;;;15.00;12.37;;;;;;;;;;5095252;28;20431;-60
2021/04/18 09:06:59;;;;;;;15.03;13.53;;;;;;;;;;5113557;28;20901;-60
2021/04/18 09:09:25;;;;;;;14.77;13.17;;;;;;;;;;5113478;28;20435;-60
2021/04/18 09:11:50;;;;;;;16.00;13.47;;;;;;;;;;5116329;28;20428;-60
2021/04/18 09:14:24;;;;;;;15.13;13.57;;;;;;;;;;5117494;28;20207;-60
2021/04/18 09:16:49;;;;;;;14.83;13.07;;;;;;;;;;5117137;27;20215;-60
2021/04/18 09:19:28;;;;;;;12.57;11.27;;;;;;;;;;5117494;27;20801;-59
2021/04/18 09:21:54;;;;;;;14.73;13.17;;;;;;;;;;5116070;28;20218;-60
2021/04/18 09:24:19;;;;;;;13.00;11.70;;;;;;;;;;5117264;27;20833;-60
2021/04/18 09:26:59;;;;;;;13.30;12.00;;;;;;;;;;5116804;27;20471;-60
2021/04/18 09:29:27;;;;;;;15.37;13.70;;;;;;;;;;5116136;28;20617;-61
2021/04/18 09:32:01;;;;;;;13.47;11.67;;;;;;;;;;5116605;27;20459;-60
2021/04/18 09:34:26;;;;;;;15.27;13.77;;;;;;;;;;5116971;28;20445;-61
2021/04/18 09:36:53;;;;;;;13.83;12.00;;;;;;;;;;5116436;28;20427;-60
2021/04/18 09:39:19;;;;;;;15.67;13.50;;;;;;;;;;5115892;28;20214;-60
2021/04/18 09:41:45;;;;;;;16.47;13.07;;;;;;;;;;5115457;28;20445;-61
2021/04/18 09:44:26;;;;;;;12.07;10.87;;;;;;;;;;5115568;28;20466;-60
2021/04/18 09:46:53;;;;;;;15.57;12.07;;;;;;;;;;5116374;27;20220;-60
2021/04/18 09:49:19;;;;;;;11.47;10.37;;;;;;;;;;5115828;28;20444;-60
2021/04/18 09:52:04;;;;;;;12.40;11.20;;;;;;;;;;5115201;28;20464;-60
2021/04/18 09:54:32;;;;;;;13.80;12.37;;;;;;;;;;5116310;28;20674;-60
2021/04/18 09:57:20;;;;;;;11.57;10.47;;;;;;;;;;5116333;28;20477;-60
2021/04/18 10:00:00;;;;;;;13.67;10.60;;;;;;;;;;5114967;28;20843;-59
2021/04/18 10:02:25;;;;;;;12.13;10.87;;;;;;;;;;5116434;28;20453;-60
2021/04/18 10:05:05;;;;;;;12.80;11.50;;;;;;;;;;5115894;28;20448;-60
2021/04/18 10:07:31;;;;;;;12.37;11.10;;;;;;;;;;5115294;28;20310;-60
2021/04/18 10:09:56;;;;;;;13.13;11.83;;;;;;;;;;5115700;27;20453;-60
2021/04/18 10:12:21;;;;;;;12.10;11.00;;;;;;;;;;5116063;28;20301;-60
2021/04/18 10:15:01;;;;;;;12.57;11.27;;;;;;;;;;5115862;28;20222;-60
2021/04/18 10:17:33;;;;;;;11.57;10.47;;;;;;;;;;5116010;28;20313;-60
2021/04/18 10:19:58;;;;;;;12.50;10.80;;;;;;;;;;5115669;28;20453;-61
2021/04/18 10:22:24;;;;;;;11.40;10.20;;;;;;;;;;5114275;28;20818;-60
2021/04/18 10:24:50;;;;;;;11.80;10.73;;;;;;;;;;5115308;28;20248;-60
2021/04/18 10:27:24;;;;;;;12.47;11.37;;;;;;;;;;5115928;28;20222;-60
2021/04/18 10:29:49;;;;;;;12.77;11.57;;;;;;;;;;5115596;28;20457;-60
2021/04/18 10:32:18;;;;;;;12.07;11.07;;;;;;;;;;5115871;28;20463;-61
2021/04/18 10:34:46;;;;;;;12.00;10.90;;;;;;;;;;5115435;28;20217;-60
2021/04/18 10:37:11;;;;;;;11.27;10.27;;;;;;;;;;5115825;28;20471;-59
2021/04/18 10:39:36;;;;;;;12.90;11.70;;;;;;;;;;5115377;28;20817;-60
2021/04/18 10:42:02;;;;;;;11.77;10.60;;;;;;;;;;5115674;27;20298;-60
2021/04/18 10:44:28;;;;;;;12.63;11.43;;;;;;;;;;5115343;28;20317;-59
2021/04/18 10:46:57;;;;;;;9.93;9.03;;;;;;;;;;5115034;28;20577;-60
2021/04/18 10:49:25;;;;;;;11.63;10.63;;;;;;;;;;5115425;28;20453;-60
2021/04/18 10:51:50;;;;;;;11.90;10.70;;;;;;;;;;5114960;28;20472;-61
2021/04/18 10:54:17;;;;;;;11.17;10.10;;;;;;;;;;5115454;28;20543;-60
2021/04/18 10:56:44;;;;;;;10.33;9.43;;;;;;;;;;5114999;27;20651;-59
2021/04/18 10:59:09;;;;;;;10.90;9.97;;;;;;;;;;5115488;28;20449;-60
2021/04/18 11:01:35;;;;;;;10.37;9.37;;;;;;;;;;5115271;28;20803;-61
2021/04/18 11:04:00;;;;;;;11.40;10.30;;;;;;;;;;5114776;28;20214;-60
2021/04/18 11:06:25;;;;;;;12.23;11.10;;;;;;;;;;5114885;28;20284;-60
2021/04/18 11:08:51;;;;;;;10.37;9.47;;;;;;;;;;5114719;28;20230;-60
2021/04/18 11:11:16;;;;;;;12.50;11.40;;;;;;;;;;5114964;27;20230;-61
2021/04/18 11:13:41;;;;;;;10.53;9.63;;;;;;;;;;5113751;28;20310;-60
2021/04/18 11:16:07;;;;;;;11.27;10.27;;;;;;;;;;5115187;28;20643;-60
2021/04/18 11:18:33;;;;;;;11.60;10.40;;;;;;;;;;5114788;28;20311;-60
2021/04/18 11:20:58;;;;;;;12.40;11.20;;;;;;;;;;5114652;28;20306;-60
2021/04/18 11:23:23;;;;;;;10.87;9.87;;;;;;;;;;5114898;28;20298;-61
2021/04/18 11:25:48;;;;;;;11.63;10.63;;;;;;;;;;5114299;28;20686;-61
2021/04/18 11:28:14;;;;;;;12.10;11.07;;;;;;;;;;5114611;28;20306;-60
2021/04/18 11:30:39;;;;;;;9.70;8.87;;;;;;;;;;5114255;28;20272;-60
2021/04/18 11:33:04;;;;;;;11.30;10.40;;;;;;;;;;5114738;28;20215;-60
2021/04/18 11:35:30;;;;;;;10.90;9.97;;;;;;;;;;5113554;28;20219;-59
2021/04/18 11:37:56;;;;;;;13.93;10.53;;;;;;;;;;5114024;28;20237;-60
2021/04/18 11:40:24;;;;;;;11.43;10.43;;;;;;;;;;5114417;28;20222;-60
2021/04/18 11:42:49;;;;;;;11.73;10.60;;;;;;;;;;5113988;28;20477;-60
2021/04/18 11:45:15;;;;;;;11.90;10.90;;;;;;;;;;5114436;28;20453;-60
2021/04/18 11:47:41;;;;;;;11.73;10.63;;;;;;;;;;5114206;28;20222;-58
2021/04/18 11:50:07;;;;;;;10.40;9.40;;;;;;;;;;5114669;27;20298;-60
2021/04/18 11:52:32;;;;;;;11.07;10.07;;;;;;;;;;5114500;28;20540;-60
2021/04/18 11:54:57;;;;;;;11.70;10.70;;;;;;;;;;5113783;28;20298;-60
2021/04/18 11:57:23;;;;;;;10.93;9.93;;;;;;;;;;5114158;28;20252;-60
2021/04/18 11:59:48;;;;;;;11.70;10.67;;;;;;;;;;5113822;28;20311;-61
2021/04/18 12:02:13;;;;;;;11.53;10.60;;;;;;;;;;5114309;28;20214;-59
2021/04/18 12:04:38;;;;;;;9.73;9.03;;;;;;;;;;5114374;28;20215;-60
2021/04/18 12:07:04;;;;;;;11.47;10.33;;;;;;;;;;5113670;28;20637;-60
2021/04/18 12:09:29;;;;;;;9.90;9.10;;;;;;;;;;5113095;28;20215;-60
2021/04/18 12:11:55;;;;;;;11.97;10.97;;;;;;;;;;5112699;28;20754;-59
2021/04/18 12:14:20;;;;;;;12.13;11.03;;;;;;;;;;5114182;28;20282;-60
2021/04/18 12:16:45;;;;;;;10.67;9.63;;;;;;;;;;5113570;28;20226;-59
2021/04/18 12:19:10;;;;;;;12.50;9.90;;;;;;;;;;5113984;28;20310;-60
2021/04/18 12:21:36;;;;;;;10.20;9.30;;;;;;;;;;5114067;28;20636;-60
2021/04/18 12:24:01;;;;;;;11.27;10.37;;;;;;;;;;5113687;28;20242;-59
2021/04/18 12:26:27;;;;;;;12.23;11.00;;;;;;;;;;5113796;28;20238;-60
2021/04/18 12:28:52;;;;;;;11.73;10.63;;;;;;;;;;5112677;28;20241;-60
2021/04/18 12:31:19;;;;;;;11.07;10.17;;;;;;;;;;5114022;28;20214;-60
2021/04/18 12:33:44;;;;;;;11.57;10.50;;;;;;;;;;5113396;28;20223;-59
2021/04/18 12:36:10;;;;;;;11.33;10.23;;;;;;;;;;5112898;28;20488;-60
2021/04/18 12:38:38;;;;;;;12.07;11.10;;;;;;;;;;5113748;28;20219;-60
2021/04/18 12:41:04;;;;;;;10.97;10.07;;;;;;;;;;5113449;28;20223;-60
2021/04/18 12:43:30;;;;;;;12.57;11.47;;;;;;;;;;5113800;28;20591;-60
2021/04/18 12:45:55;;;;;;;12.30;11.40;;;;;;;;;;5114787;28;20231;-60
2021/04/18 12:48:20;;;;;;;12.43;11.20;;;;;;;;;;5117982;27;20552;-61
2021/04/18 12:50:46;;;;;;;10.67;9.70;;;;;;;;;;5117448;28;20214;-60
2021/04/18 12:53:11;;;;;;;11.17;10.17;;;;;;;;;;5117686;28;20241;-60
2021/04/18 12:55:36;;;;;;;11.43;10.33;;;;;;;;;;5117638;28;20280;-59
2021/04/18 12:58:02;;;;;;;10.57;9.73;;;;;;;;;;5117268;28;20243;-61
2021/04/18 13:00:27;;;;;;;12.00;11.00;;;;;;;;;;5117581;27;20704;-60
2021/04/18 13:02:53;;;;;;;11.37;10.27;;;;;;;;;;5117174;27;20560;-60
2021/04/18 13:05:18;;;;;;;11.23;10.17;;;;;;;;;;5117565;28;20228;-60
2021/04/18 13:07:44;;;;;;;11.67;10.67;;;;;;;;;;5117257;28;20949;-60
2021/04/18 13:10:10;;;;;;;10.87;9.90;;;;;;;;;;5117042;27;20215;-60
2021/04/18 13:12:37;;;;;;;9.50;8.70;;;;;;;;;;5117409;27;20551;-60
2021/04/18 13:15:07;;;;;;;9.47;8.67;;;;;;;;;;5117102;28;20989;-59
2021/04/18 13:17:32;;;;;;;10.73;9.73;;;;;;;;;;5117237;28;20449;-61
2021/04/18 13:19:57;;;;;;;9.20;8.40;;;;;;;;;;5116892;27;20945;-60
2021/04/18 13:22:23;;;;;;;10.40;9.20;;;;;;;;;;5117283;28;20255;-60
2021/04/18 13:24:48;;;;;;;9.20;8.50;;;;;;;;;;5116697;28;20211;-60
2021/04/18 13:27:14;;;;;;;10.73;9.70;;;;;;;;;;5117042;28;20640;-60
2021/04/18 13:29:40;;;;;;;10.67;9.70;;;;;;;;;;5117102;27;20215;-61
2021/04/18 13:32:06;;;;;;;11.10;10.10;;;;;;;;;;5116554;27;20449;-60
2021/04/18 13:34:32;;;;;;;10.63;9.63;;;;;;;;;;5116978;27;20459;-60
2021/04/18 13:36:57;;;;;;;10.00;9.17;;;;;;;;;;5116399;27;20349;-60
2021/04/18 13:39:22;;;;;;;10.60;9.50;;;;;;;;;;5116857;28;20572;-61
2021/04/18 13:41:50;;;;;;;9.40;8.60;;;;;;;;;;5116359;28;20302;-61
2021/04/18 13:44:16;;;;;;;9.70;8.80;;;;;;;;;;5116596;28;20293;-61
2021/04/18 13:46:43;;;;;;;10.30;9.40;;;;;;;;;;5116509;27;20945;-61
2021/04/18 13:49:08;;;;;;;10.40;9.60;;;;;;;;;;5116245;27;20441;-61
2021/04/18 13:51:33;;;;;;;11.40;10.23;;;;;;;;;;5116539;28;20498;-60
2021/04/18 13:53:59;;;;;;;11.87;10.77;;;;;;;;;;5116127;28;20293;-62
2021/04/18 13:56:24;;;;;;;12.97;11.83;;;;;;;;;;5116313;28;20683;-61
2021/04/18 13:58:51;;;;;;;13.90;12.70;;;;;;;;;;5114229;28;20301;-61
2021/04/18 14:01:17;;;;;;;15.50;14.10;;;;;;;;;;5116555;27;20234;-61
2021/04/18 14:03:42;;;;;;;15.47;14.17;;;;;;;;;;5116583;28;20461;-61
2021/04/18 14:06:07;;;;;;;11.53;10.60;;;;;;;;;;5115985;27;20282;-61
2021/04/18 14:08:33;;;;;;;15.20;13.80;;;;;;;;;;5116181;28;20640;-61
2021/04/18 14:10:58;;;;;;;16.30;14.60;;;;;;;;;;5115860;28;20302;-61
2021/04/18 14:13:23;;;;;;;16.87;15.37;;;;;;;;;;5116210;28;20302;-59
2021/04/18 14:15:48;;;;;;;17.07;15.67;;;;;;;;;;5116098;28;20268;-60
2021/04/18 14:18:14;;;;;;;18.03;16.43;;;;;;;;;;5115598;28;20595;-60